createdAt,value
2022-09-20T00:00:03.866Z,0.000000
2022-09-20T00:01:00.481Z,0.000000
2022-09-20T00:02:00.516Z,0.000000
2022-09-20T00:03:00.474Z,0.000000
2022-09-20T00:04:00.559Z,0.000000
2022-09-20T00:05:03.513Z,0.000000
2022-09-20T00:06:00.543Z,0.000000
2022-09-20T00:07:00.476Z,0.000000
2022-09-20T00:08:00.527Z,0.000000
2022-09-20T00:09:00.495Z,0.000000
2022-09-20T00:10:04.894Z,0.000000
2022-09-20T00:11:00.507Z,0.000000
2022-09-20T00:12:00.579Z,0.000000
2022-09-20T00:13:00.498Z,0.000000
2022-09-20T00:14:00.613Z,0.000000
2022-09-20T00:15:03.424Z,0.000000
2022-09-20T00:16:00.600Z,0.000000
2022-09-20T00:17:00.561Z,0.000000
2022-09-20T00:18:00.615Z,0.000000
2022-09-20T00:19:00.553Z,0.000000
2022-09-20T00:20:03.849Z,0.000000
2022-09-20T00:21:00.585Z,0.000000
2022-09-20T00:22:00.643Z,0.000000
2022-09-20T00:23:00.584Z,0.000000
2022-09-20T00:24:00.658Z,0.000000
2022-09-20T00:25:03.851Z,0.000000
2022-09-20T00:26:00.658Z,0.000000
2022-09-20T00:27:00.617Z,0.000000
2022-09-20T00:28:00.874Z,0.000000
2022-09-20T00:29:00.634Z,0.000000
2022-09-20T00:30:03.921Z,0.000000
2022-09-20T00:31:00.630Z,0.000000
2022-09-20T00:32:00.782Z,0.000000
2022-09-20T00:33:00.642Z,0.000000
2022-09-20T00:34:00.732Z,0.000000
2022-09-20T00:35:03.559Z,0.000000
2022-09-20T00:36:00.723Z,0.000000
2022-09-20T00:37:00.668Z,0.000000
2022-09-20T00:38:00.726Z,0.000000
2022-09-20T00:39:00.679Z,0.000000
2022-09-20T00:40:03.941Z,0.000000
2022-09-20T00:41:00.698Z,0.000000
2022-09-20T00:42:00.752Z,0.000000
2022-09-20T00:43:00.702Z,0.000000
2022-09-20T00:44:00.773Z,0.000000
2022-09-20T00:45:05.380Z,0.000000
2022-09-20T00:46:00.892Z,0.000000
2022-09-20T00:47:00.712Z,0.000000
2022-09-20T00:48:00.813Z,0.000000
2022-09-20T00:49:00.754Z,0.000000
2022-09-20T00:50:03.879Z,0.000000
2022-09-20T00:51:00.791Z,0.000000
2022-09-20T00:52:00.843Z,0.000000
2022-09-20T00:53:00.759Z,0.000000
2022-09-20T00:54:00.862Z,0.000000
2022-09-20T00:55:03.862Z,0.000000
2022-09-20T00:56:00.836Z,0.000000
2022-09-20T00:57:00.848Z,0.000000
2022-09-20T00:58:00.876Z,0.000000
2022-09-20T00:59:00.811Z,0.000000
2022-09-20T01:00:05.609Z,0.000000
2022-09-20T01:01:00.944Z,0.000000
2022-09-20T01:02:00.980Z,0.000000
2022-09-20T01:03:00.915Z,0.000000
2022-09-20T01:04:00.939Z,0.000000
2022-09-20T01:05:03.819Z,0.000000
2022-09-20T01:06:00.962Z,0.000000
2022-09-20T01:07:01.119Z,0.000000
2022-09-20T01:08:00.954Z,0.000000
2022-09-20T01:09:00.930Z,0.000000
2022-09-20T01:10:04.279Z,0.000000
2022-09-20T01:11:00.906Z,0.000000
2022-09-20T01:12:00.994Z,0.000000
2022-09-20T01:13:00.901Z,0.000000
2022-09-20T01:14:00.994Z,0.000000
2022-09-20T01:15:03.843Z,0.000000
2022-09-20T01:16:01.004Z,0.000000
2022-09-20T01:17:01.058Z,0.000000
2022-09-20T01:18:01.028Z,0.000000
2022-09-20T01:19:00.951Z,0.000000
2022-09-20T01:20:04.303Z,0.000000
2022-09-20T01:21:00.982Z,0.000000
2022-09-20T01:22:01.047Z,0.000000
2022-09-20T01:23:00.981Z,0.000000
2022-09-20T01:24:01.049Z,0.000000
2022-09-20T01:25:03.923Z,0.000000
2022-09-20T01:26:01.085Z,0.000000
2022-09-20T01:27:01.000Z,0.000000
2022-09-20T01:28:01.092Z,0.000000
2022-09-20T01:29:01.021Z,0.000000
2022-09-20T01:30:04.897Z,0.000000
2022-09-20T01:31:01.051Z,0.000000
2022-09-20T01:32:01.428Z,0.000000
2022-09-20T01:33:01.083Z,0.000000
2022-09-20T01:34:01.131Z,0.000000
2022-09-20T01:35:04.075Z,0.000000
2022-09-20T01:36:01.143Z,0.000000
2022-09-20T01:37:01.078Z,0.000000
2022-09-20T01:38:01.182Z,0.000000
2022-09-20T01:39:01.110Z,0.000000
2022-09-20T01:40:06.279Z,0.000000
2022-09-20T01:41:01.102Z,0.000000
2022-09-20T01:42:01.237Z,0.000000
2022-09-20T01:43:01.117Z,0.000000
2022-09-20T01:44:01.212Z,0.000000
2022-09-20T01:45:05.272Z,0.000000
2022-09-20T01:46:01.378Z,0.000000
2022-09-20T01:47:01.124Z,0.000000
2022-09-20T01:48:01.236Z,0.000000
2022-09-20T01:49:01.144Z,0.000000
2022-09-20T01:50:04.783Z,0.000000
2022-09-20T01:51:01.159Z,0.000000
2022-09-20T01:52:01.220Z,0.000000
2022-09-20T01:53:00.169Z,0.000000
2022-09-20T01:54:00.236Z,67.500000
2022-09-20T01:55:03.197Z,67.500000
2022-09-20T01:56:00.289Z,33.750000
2022-09-20T01:57:00.196Z,33.750000
2022-09-20T01:58:00.260Z,33.750000
2022-09-20T01:59:19.896Z,0.000000
2022-09-20T02:00:04.573Z,0.000000
2022-09-20T02:01:00.316Z,0.000000
2022-09-20T02:02:00.396Z,0.000000
2022-09-20T02:03:00.254Z,0.000000
2022-09-20T02:04:00.350Z,0.000000
2022-09-20T02:05:03.345Z,0.000000
2022-09-20T02:06:00.343Z,0.000000
2022-09-20T02:07:00.260Z,0.000000
2022-09-20T02:08:00.367Z,0.000000
2022-09-20T02:09:00.286Z,0.000000
2022-09-20T02:10:04.631Z,0.000000
2022-09-20T02:11:00.299Z,0.000000
2022-09-20T02:12:00.379Z,0.000000
2022-09-20T02:13:00.293Z,0.000000
2022-09-20T02:14:00.413Z,0.000000
2022-09-20T02:15:03.320Z,0.000000
2022-09-20T02:16:00.384Z,0.000000
2022-09-20T02:17:00.407Z,0.000000
2022-09-20T02:18:00.429Z,0.000000
2022-09-20T02:19:00.343Z,0.000000
2022-09-20T02:20:03.659Z,0.000000
2022-09-20T02:21:00.362Z,0.000000
2022-09-20T02:22:00.429Z,0.000000
2022-09-20T02:23:00.428Z,0.000000
2022-09-20T02:24:00.448Z,0.000000
2022-09-20T02:25:03.214Z,33.750000
2022-09-20T02:26:00.488Z,33.750000
2022-09-20T02:27:00.407Z,56.250000
2022-09-20T02:28:00.463Z,56.250000
2022-09-20T02:29:00.401Z,56.250000
2022-09-20T02:30:04.713Z,0.000000
2022-09-20T02:31:00.420Z,0.000000
2022-09-20T02:32:00.584Z,0.000000
2022-09-20T02:33:00.422Z,0.000000
2022-09-20T02:34:00.477Z,0.000000
2022-09-20T02:35:04.034Z,0.000000
2022-09-20T02:36:00.704Z,0.000000
2022-09-20T02:37:00.442Z,0.000000
2022-09-20T02:38:00.563Z,0.000000
2022-09-20T02:39:00.464Z,0.000000
2022-09-20T02:40:03.763Z,67.500000
2022-09-20T02:41:00.488Z,67.500000
2022-09-20T02:42:00.546Z,45.000000
2022-09-20T02:43:00.490Z,45.000000
2022-09-20T02:44:00.586Z,45.000000
2022-09-20T02:45:03.873Z,0.000000
2022-09-20T02:46:00.586Z,0.000000
2022-09-20T02:47:00.522Z,78.750000
2022-09-20T02:48:00.621Z,78.750000
2022-09-20T02:49:00.529Z,78.750000
2022-09-20T02:50:03.698Z,11.250000
2022-09-20T02:51:00.540Z,11.250000
2022-09-20T02:52:00.659Z,11.250000
2022-09-20T02:53:00.563Z,11.250000
2022-09-20T02:54:00.626Z,11.250000
2022-09-20T02:55:03.706Z,45.000000
2022-09-20T02:56:00.658Z,45.000000
2022-09-20T02:57:00.603Z,45.000000
2022-09-20T02:58:00.649Z,0.000000
2022-09-20T02:59:00.580Z,0.000000
2022-09-20T03:00:06.475Z,90.000000
2022-09-20T03:01:01.685Z,90.000000
2022-09-20T03:02:01.718Z,90.000000
2022-09-20T03:03:01.636Z,22.500000
2022-09-20T03:04:01.709Z,22.500000
2022-09-20T03:05:04.848Z,22.500000
2022-09-20T03:06:01.753Z,22.500000
2022-09-20T03:07:01.871Z,11.250000
2022-09-20T03:08:03.187Z,11.250000
2022-09-20T03:09:01.701Z,11.250000
2022-09-20T03:10:06.061Z,33.750000
2022-09-20T03:11:01.704Z,33.750000
2022-09-20T03:12:01.781Z,33.750000
2022-09-20T03:13:01.741Z,33.750000
2022-09-20T03:14:01.780Z,33.750000
2022-09-20T03:15:04.939Z,11.250000
2022-09-20T03:16:01.795Z,11.250000
2022-09-20T03:17:01.784Z,33.750000
2022-09-20T03:18:01.815Z,33.750000
2022-09-20T03:19:01.799Z,33.750000
2022-09-20T03:20:10.592Z,11.250000
2022-09-20T03:21:01.790Z,11.250000
2022-09-20T03:22:01.865Z,11.250000
2022-09-20T03:23:01.838Z,22.500000
2022-09-20T03:24:01.876Z,22.500000
2022-09-20T03:25:06.240Z,0.000000
2022-09-20T03:26:01.875Z,0.000000
2022-09-20T03:27:01.836Z,22.500000
2022-09-20T03:28:01.869Z,22.500000
2022-09-20T03:29:01.842Z,22.500000
2022-09-20T03:30:22.184Z,11.250000
2022-09-20T03:31:01.859Z,11.250000
2022-09-20T03:32:01.985Z,11.250000
2022-09-20T03:33:01.895Z,11.250000
2022-09-20T03:34:01.948Z,11.250000
2022-09-20T03:35:10.069Z,11.250000
2022-09-20T03:36:02.205Z,11.250000
2022-09-20T03:37:01.926Z,11.250000
2022-09-20T03:38:02.001Z,0.000000
2022-09-20T03:39:02.165Z,0.000000
2022-09-20T03:40:06.953Z,0.000000
2022-09-20T03:41:01.943Z,0.000000
2022-09-20T03:42:02.163Z,0.000000
2022-09-20T03:43:02.052Z,11.250000
2022-09-20T03:44:02.228Z,11.250000
2022-09-20T03:45:06.788Z,11.250000
2022-09-20T03:46:02.494Z,11.250000
2022-09-20T03:47:01.983Z,11.250000
2022-09-20T03:48:02.100Z,33.750000
2022-09-20T03:49:02.005Z,33.750000
2022-09-20T03:50:05.211Z,33.750000
2022-09-20T03:51:02.010Z,33.750000
2022-09-20T03:52:02.089Z,33.750000
2022-09-20T03:53:02.014Z,33.750000
2022-09-20T03:54:03.236Z,11.250000
2022-09-20T03:55:04.260Z,11.250000
2022-09-20T03:56:01.106Z,22.500000
2022-09-20T03:57:01.051Z,22.500000
2022-09-20T03:58:01.105Z,22.500000
2022-09-20T03:59:01.060Z,0.000000
2022-09-20T04:00:06.823Z,0.000000
2022-09-20T04:01:02.138Z,22.500000
2022-09-20T04:02:02.250Z,22.500000
2022-09-20T04:03:02.114Z,22.500000
2022-09-20T04:04:02.175Z,22.500000
2022-09-20T04:05:05.751Z,22.500000
2022-09-20T04:06:03.193Z,22.500000
2022-09-20T04:07:02.129Z,22.500000
2022-09-20T04:08:02.250Z,22.500000
2022-09-20T04:09:02.135Z,22.500000
2022-09-20T04:10:05.760Z,22.500000
2022-09-20T04:11:02.143Z,22.500000
2022-09-20T04:12:02.254Z,22.500000
2022-09-20T04:13:02.164Z,0.000000
2022-09-20T04:14:02.216Z,0.000000
2022-09-20T04:15:05.255Z,0.000000
2022-09-20T04:16:02.244Z,0.000000
2022-09-20T04:17:02.314Z,0.000000
2022-09-20T04:18:02.292Z,0.000000
2022-09-20T04:19:01.209Z,0.000000
2022-09-20T04:20:05.688Z,0.000000
2022-09-20T04:21:01.241Z,0.000000
2022-09-20T04:22:01.284Z,0.000000
2022-09-20T04:23:01.230Z,0.000000
2022-09-20T04:24:01.327Z,0.000000
2022-09-20T04:25:05.853Z,0.000000
2022-09-20T04:26:01.565Z,0.000000
2022-09-20T04:27:01.280Z,0.000000
2022-09-20T04:28:01.320Z,0.000000
2022-09-20T04:29:01.268Z,0.000000
2022-09-20T04:30:04.550Z,0.000000
2022-09-20T04:31:01.271Z,0.000000
2022-09-20T04:32:01.440Z,0.000000
2022-09-20T04:33:01.298Z,0.000000
2022-09-20T04:34:01.356Z,0.000000
2022-09-20T04:35:05.436Z,0.000000
2022-09-20T04:36:01.392Z,0.000000
2022-09-20T04:37:01.312Z,0.000000
2022-09-20T04:38:01.407Z,0.000000
2022-09-20T04:39:01.344Z,0.000000
2022-09-20T04:40:32.665Z,0.000000
2022-09-20T04:41:01.356Z,0.000000
2022-09-20T04:42:01.447Z,0.000000
2022-09-20T04:43:01.352Z,0.000000
2022-09-20T04:44:01.444Z,0.000000
2022-09-20T04:45:05.620Z,0.000000
2022-09-20T04:46:01.622Z,0.000000
2022-09-20T04:47:01.372Z,0.000000
2022-09-20T04:48:01.459Z,0.000000
2022-09-20T04:49:01.388Z,0.000000
2022-09-20T04:50:05.787Z,0.000000
2022-09-20T04:51:01.411Z,0.000000
2022-09-20T04:52:01.542Z,0.000000
2022-09-20T04:53:01.420Z,0.000000
2022-09-20T04:54:03.177Z,0.000000
2022-09-20T04:55:07.669Z,0.000000
2022-09-20T04:56:01.514Z,0.000000
2022-09-20T04:57:01.465Z,0.000000
2022-09-20T04:58:01.580Z,0.000000
2022-09-20T04:59:01.451Z,0.000000
2022-09-20T05:00:05.142Z,0.000000
2022-09-20T05:01:01.603Z,0.000000
2022-09-20T05:02:01.612Z,0.000000
2022-09-20T05:03:01.545Z,0.000000
2022-09-20T05:04:01.627Z,0.000000
2022-09-20T05:05:05.747Z,0.000000
2022-09-20T05:06:01.620Z,0.000000
2022-09-20T05:07:00.547Z,0.000000
2022-09-20T05:08:00.615Z,0.000000
2022-09-20T05:09:00.678Z,0.000000
2022-09-20T05:10:04.946Z,0.000000
2022-09-20T05:11:00.575Z,0.000000
2022-09-20T05:12:00.648Z,0.000000
2022-09-20T05:13:00.566Z,0.000000
2022-09-20T05:14:00.664Z,0.000000
2022-09-20T05:15:03.591Z,0.000000
2022-09-20T05:16:00.686Z,0.000000
2022-09-20T05:17:00.672Z,0.000000
2022-09-20T05:18:00.692Z,0.000000
2022-09-20T05:19:00.618Z,0.000000
2022-09-20T05:20:25.471Z,0.000000
2022-09-20T05:21:00.656Z,0.000000
2022-09-20T05:22:00.738Z,0.000000
2022-09-20T05:23:00.663Z,0.000000
2022-09-20T05:24:00.751Z,0.000000
2022-09-20T05:25:03.696Z,0.000000
2022-09-20T05:26:00.747Z,0.000000
2022-09-20T05:27:00.698Z,0.000000
2022-09-20T05:28:00.790Z,0.000000
2022-09-20T05:29:00.693Z,0.000000
2022-09-20T05:30:04.987Z,0.000000
2022-09-20T05:31:00.728Z,0.000000
2022-09-20T05:32:00.900Z,0.000000
2022-09-20T05:33:00.737Z,0.000000
2022-09-20T05:34:00.829Z,0.000000
2022-09-20T05:35:04.057Z,0.000000
2022-09-20T05:36:00.823Z,0.000000
2022-09-20T05:37:00.765Z,0.000000
2022-09-20T05:38:00.817Z,0.000000
2022-09-20T05:39:03.395Z,0.000000
2022-09-20T05:40:04.268Z,0.000000
2022-09-20T05:41:00.795Z,0.000000
2022-09-20T05:42:00.866Z,0.000000
2022-09-20T05:43:00.807Z,0.000000
2022-09-20T05:44:00.874Z,0.000000
2022-09-20T05:45:03.995Z,0.000000
2022-09-20T05:46:01.669Z,0.000000
2022-09-20T05:47:00.829Z,0.000000
2022-09-20T05:48:00.899Z,0.000000
2022-09-20T05:49:00.843Z,0.000000
2022-09-20T05:50:04.471Z,0.000000
2022-09-20T05:51:03.822Z,0.000000
2022-09-20T05:52:01.074Z,0.000000
2022-09-20T05:53:00.868Z,0.000000
2022-09-20T05:54:00.939Z,0.000000
2022-09-20T05:55:03.814Z,0.000000
2022-09-20T05:56:00.942Z,0.000000
2022-09-20T05:57:00.899Z,0.000000
2022-09-20T05:58:01.000Z,0.000000
2022-09-20T05:59:00.889Z,0.000000
2022-09-20T06:00:04.543Z,0.000000
2022-09-20T06:01:01.028Z,0.000000
2022-09-20T06:02:01.057Z,0.000000
2022-09-20T06:03:00.964Z,0.000000
2022-09-20T06:04:01.031Z,0.000000
2022-09-20T06:05:04.034Z,0.000000
2022-09-20T06:06:01.032Z,0.000000
2022-09-20T06:07:00.968Z,0.000000
2022-09-20T06:08:01.040Z,0.000000
2022-09-20T06:09:00.991Z,0.000000
2022-09-20T06:10:04.633Z,0.000000
2022-09-20T06:11:00.982Z,0.000000
2022-09-20T06:12:01.073Z,0.000000
2022-09-20T06:13:01.003Z,0.000000
2022-09-20T06:14:01.069Z,0.000000
2022-09-20T06:15:06.073Z,0.000000
2022-09-20T06:16:01.093Z,0.000000
2022-09-20T06:17:01.037Z,0.000000
2022-09-20T06:18:01.142Z,0.000000
2022-09-20T06:19:01.034Z,0.000000
2022-09-20T06:20:04.627Z,0.000000
2022-09-20T06:21:01.107Z,0.000000
2022-09-20T06:22:03.728Z,0.000000
2022-09-20T06:23:01.058Z,0.000000
2022-09-20T06:24:01.142Z,0.000000
2022-09-20T06:25:04.379Z,0.000000
2022-09-20T06:26:01.162Z,0.000000
2022-09-20T06:27:01.094Z,0.000000
2022-09-20T06:28:01.143Z,0.000000
2022-09-20T06:29:01.096Z,0.000000
2022-09-20T06:30:04.897Z,0.000000
2022-09-20T06:31:01.139Z,0.000000
2022-09-20T06:32:01.242Z,0.000000
2022-09-20T06:33:01.168Z,0.000000
2022-09-20T06:34:01.222Z,0.000000
2022-09-20T06:35:04.160Z,0.000000
2022-09-20T06:36:01.212Z,0.000000
2022-09-20T06:37:01.149Z,0.000000
2022-09-20T06:38:01.240Z,0.000000
2022-09-20T06:39:01.167Z,0.000000
2022-09-20T06:40:06.720Z,0.000000
2022-09-20T06:41:01.176Z,0.000000
2022-09-20T06:42:01.245Z,0.000000
2022-09-20T06:43:01.181Z,0.000000
2022-09-20T06:44:01.311Z,0.000000
2022-09-20T06:45:06.366Z,78.750000
2022-09-20T06:46:00.336Z,78.750000
2022-09-20T06:47:00.207Z,78.750000
2022-09-20T06:48:00.268Z,45.000000
2022-09-20T06:49:00.221Z,45.000000
2022-09-20T06:50:03.808Z,22.500000
2022-09-20T06:51:00.235Z,22.500000
2022-09-20T06:52:00.301Z,22.500000
2022-09-20T06:53:00.247Z,0.000000
2022-09-20T06:54:00.322Z,0.000000
2022-09-20T06:55:03.186Z,0.000000
2022-09-20T06:56:00.369Z,0.000000
2022-09-20T06:57:00.283Z,0.000000
2022-09-20T06:58:00.343Z,0.000000
2022-09-20T06:59:00.292Z,90.000000
2022-09-20T07:00:06.064Z,90.000000
2022-09-20T07:01:00.403Z,56.250000
2022-09-20T07:02:00.454Z,56.250000
2022-09-20T07:03:00.582Z,22.500000
2022-09-20T07:04:00.394Z,22.500000
2022-09-20T07:05:03.208Z,22.500000
2022-09-20T07:06:00.447Z,90.000000
2022-09-20T07:07:00.344Z,90.000000
2022-09-20T07:08:00.450Z,33.750000
2022-09-20T07:09:00.364Z,33.750000
2022-09-20T07:10:05.154Z,33.750000
2022-09-20T07:11:00.369Z,0.000000
2022-09-20T07:12:00.461Z,0.000000
2022-09-20T07:13:00.396Z,78.750000
2022-09-20T07:14:00.483Z,78.750000
2022-09-20T07:15:03.393Z,78.750000
2022-09-20T07:16:00.500Z,78.750000
2022-09-20T07:17:00.427Z,78.750000
2022-09-20T07:18:00.521Z,78.750000
2022-09-20T07:19:00.456Z,33.750000
2022-09-20T07:20:04.898Z,33.750000
2022-09-20T07:21:00.481Z,56.250000
2022-09-20T07:22:00.603Z,56.250000
2022-09-20T07:23:00.481Z,56.250000
2022-09-20T07:24:00.559Z,56.250000
2022-09-20T07:25:03.339Z,56.250000
2022-09-20T07:26:00.607Z,45.000000
2022-09-20T07:27:00.525Z,45.000000
2022-09-20T07:28:00.572Z,101.250000
2022-09-20T07:29:00.529Z,101.250000
2022-09-20T07:30:04.904Z,101.250000
2022-09-20T07:31:00.528Z,78.750000
2022-09-20T07:32:00.661Z,78.750000
2022-09-20T07:33:00.557Z,11.250000
2022-09-20T07:34:00.614Z,11.250000
2022-09-20T07:35:03.477Z,11.250000
2022-09-20T07:36:00.635Z,33.750000
2022-09-20T07:37:00.560Z,33.750000
2022-09-20T07:38:00.784Z,33.750000
2022-09-20T07:39:00.645Z,33.750000
2022-09-20T07:40:04.493Z,33.750000
2022-09-20T07:41:00.625Z,22.500000
2022-09-20T07:42:00.705Z,22.500000
2022-09-20T07:43:00.609Z,22.500000
2022-09-20T07:44:00.725Z,22.500000
2022-09-20T07:45:03.919Z,22.500000
2022-09-20T07:46:00.735Z,67.500000
2022-09-20T07:47:00.664Z,67.500000
2022-09-20T07:48:00.733Z,11.250000
2022-09-20T07:49:00.671Z,11.250000
2022-09-20T07:50:04.083Z,11.250000
2022-09-20T07:51:00.696Z,45.000000
2022-09-20T07:52:00.756Z,45.000000
2022-09-20T07:53:00.692Z,11.250000
2022-09-20T07:54:00.895Z,11.250000
2022-09-20T07:55:03.833Z,11.250000
2022-09-20T07:56:00.795Z,56.250000
2022-09-20T07:57:00.722Z,56.250000
2022-09-20T07:58:00.778Z,33.750000
2022-09-20T07:59:00.723Z,33.750000
2022-09-20T08:00:05.164Z,33.750000
2022-09-20T08:01:00.827Z,101.250000
2022-09-20T08:02:02.074Z,101.250000
2022-09-20T08:03:00.750Z,101.250000
2022-09-20T08:04:00.840Z,56.250000
2022-09-20T08:05:07.673Z,56.250000
2022-09-20T08:06:00.886Z,67.500000
2022-09-20T08:07:00.778Z,67.500000
2022-09-20T08:08:00.858Z,67.500000
2022-09-20T08:09:00.794Z,67.500000
2022-09-20T08:10:03.858Z,67.500000
2022-09-20T08:11:00.806Z,56.250000
2022-09-20T08:14:05.347Z,56.250000
2022-09-20T08:14:05.825Z,67.500000
2022-09-20T08:15:07.406Z,67.500000
2022-09-20T08:16:00.900Z,67.500000
2022-09-20T08:17:00.867Z,56.250000
2022-09-20T08:18:00.919Z,56.250000
2022-09-20T08:19:00.853Z,45.000000
2022-09-20T08:20:04.245Z,45.000000
2022-09-20T08:21:00.869Z,67.500000
2022-09-20T08:22:00.927Z,67.500000
2022-09-20T08:23:22.098Z,67.500000
2022-09-20T08:24:00.953Z,33.750000
2022-09-20T08:25:05.076Z,33.750000
2022-09-20T08:26:00.971Z,33.750000
2022-09-20T08:27:00.901Z,33.750000
2022-09-20T08:28:00.980Z,33.750000
2022-09-20T08:29:00.897Z,33.750000
2022-09-20T08:30:05.324Z,33.750000
2022-09-20T08:31:00.924Z,56.250000
2022-09-20T08:32:01.070Z,56.250000
2022-09-20T08:33:00.936Z,56.250000
2022-09-20T08:34:00.972Z,56.250000
2022-09-20T08:35:04.139Z,56.250000
2022-09-20T08:36:01.009Z,56.250000
2022-09-20T08:37:00.961Z,22.500000
2022-09-20T08:40:10.192Z,67.500000
2022-09-20T08:41:00.981Z,67.500000
2022-09-20T08:42:01.054Z,45.000000
2022-09-20T08:43:05.481Z,45.000000
2022-09-20T08:44:01.074Z,67.500000
2022-09-20T08:45:04.406Z,67.500000
2022-09-20T08:46:05.455Z,67.500000
2022-09-20T08:47:01.013Z,67.500000
2022-09-20T08:48:01.092Z,67.500000
2022-09-20T08:49:01.020Z,56.250000
2022-09-20T08:50:09.856Z,56.250000
2022-09-20T08:51:05.656Z,56.250000
2022-09-20T08:52:01.126Z,67.500000
2022-09-20T08:53:01.074Z,67.500000
2022-09-20T08:54:01.363Z,78.750000
2022-09-20T08:55:07.696Z,78.750000
2022-09-20T08:56:01.186Z,78.750000
2022-09-20T08:57:01.080Z,78.750000
2022-09-20T08:58:04.936Z,78.750000
2022-09-20T08:59:01.094Z,78.750000
2022-09-20T09:00:06.220Z,56.250000
2022-09-20T09:01:01.180Z,56.250000
2022-09-20T09:02:01.305Z,22.500000
2022-09-20T09:03:01.141Z,22.500000
2022-09-20T09:04:02.071Z,67.500000
2022-09-20T09:05:04.102Z,67.500000
2022-09-20T09:06:02.349Z,90.000000
2022-09-20T09:07:01.175Z,90.000000
2022-09-20T09:08:01.314Z,90.000000
2022-09-20T09:09:00.192Z,67.500000
2022-09-20T09:10:04.087Z,67.500000
2022-09-20T09:11:00.198Z,67.500000
2022-09-20T09:12:00.354Z,78.750000
2022-09-20T09:13:00.210Z,78.750000
2022-09-20T09:14:00.310Z,78.750000
2022-09-20T09:15:03.422Z,78.750000
2022-09-20T09:16:00.285Z,56.250000
2022-09-20T09:17:00.302Z,56.250000
2022-09-20T09:18:00.294Z,56.250000
2022-09-20T09:19:00.245Z,67.500000
2022-09-20T09:20:04.678Z,67.500000
2022-09-20T09:21:00.259Z,67.500000
2022-09-20T09:22:00.320Z,67.500000
2022-09-20T09:23:00.265Z,67.500000
2022-09-20T09:24:00.323Z,33.750000
2022-09-20T09:25:03.269Z,33.750000
2022-09-20T09:26:00.367Z,33.750000
2022-09-20T09:27:00.285Z,45.000000
2022-09-20T09:28:00.377Z,45.000000
2022-09-20T09:29:00.303Z,45.000000
2022-09-20T09:30:04.958Z,45.000000
2022-09-20T09:31:00.320Z,45.000000
2022-09-20T09:32:00.477Z,45.000000
2022-09-20T09:33:00.342Z,56.250000
2022-09-20T09:34:00.411Z,56.250000
2022-09-20T09:35:03.317Z,56.250000
2022-09-20T09:36:00.416Z,56.250000
2022-09-20T09:37:00.359Z,33.750000
2022-09-20T09:38:00.456Z,33.750000
2022-09-20T09:39:00.381Z,33.750000
2022-09-20T09:40:03.590Z,45.000000
2022-09-20T09:41:00.372Z,45.000000
2022-09-20T09:42:00.476Z,45.000000
2022-09-20T09:43:00.392Z,45.000000
2022-09-20T09:44:00.498Z,45.000000
2022-09-20T09:45:03.393Z,45.000000
2022-09-20T09:46:00.545Z,45.000000
2022-09-20T09:47:00.426Z,45.000000
2022-09-20T09:48:00.505Z,56.250000
2022-09-20T09:49:00.432Z,56.250000
2022-09-20T09:50:09.507Z,67.500000
2022-09-20T09:51:00.465Z,67.500000
2022-09-20T09:52:00.498Z,67.500000
2022-09-20T09:53:00.456Z,56.250000
2022-09-20T09:54:00.522Z,56.250000
2022-09-20T09:55:05.672Z,56.250000
2022-09-20T09:56:00.669Z,78.750000
2022-09-20T09:57:00.500Z,78.750000
2022-09-20T09:58:00.542Z,45.000000
2022-09-20T09:59:00.503Z,45.000000
2022-09-20T10:00:09.261Z,45.000000
2022-09-20T10:01:00.541Z,45.000000
2022-09-20T10:02:00.657Z,56.250000
2022-09-20T10:03:00.535Z,56.250000
2022-09-20T10:04:00.609Z,56.250000
2022-09-20T10:05:03.627Z,78.750000
2022-09-20T10:06:00.625Z,78.750000
2022-09-20T10:07:00.560Z,78.750000
2022-09-20T10:08:00.667Z,90.000000
2022-09-20T10:09:00.587Z,90.000000
2022-09-20T10:10:04.024Z,56.250000
2022-09-20T10:11:00.579Z,56.250000
2022-09-20T10:12:00.668Z,56.250000
2022-09-20T10:13:00.597Z,45.000000
2022-09-20T10:14:00.871Z,45.000000
2022-09-20T10:15:03.455Z,45.000000
2022-09-20T10:16:00.684Z,78.750000
2022-09-20T10:17:00.614Z,78.750000
2022-09-20T10:18:00.692Z,78.750000
2022-09-20T10:19:00.628Z,78.750000
2022-09-20T10:20:04.003Z,78.750000
2022-09-20T10:21:00.651Z,56.250000
2022-09-20T10:22:00.705Z,56.250000
2022-09-20T10:23:34.517Z,56.250000
2022-09-20T10:24:04.203Z,56.250000
2022-09-20T10:25:03.556Z,45.000000
2022-09-20T10:26:00.761Z,45.000000
2022-09-20T10:27:00.697Z,45.000000
2022-09-20T10:28:00.754Z,45.000000
2022-09-20T10:29:00.682Z,45.000000
2022-09-20T10:30:05.824Z,45.000000
2022-09-20T10:31:00.771Z,67.500000
2022-09-20T10:32:00.827Z,67.500000
2022-09-20T10:33:00.711Z,78.750000
2022-09-20T10:34:00.780Z,78.750000
2022-09-20T10:35:04.989Z,56.250000
2022-09-20T10:36:00.786Z,56.250000
2022-09-20T10:37:00.726Z,56.250000
2022-09-20T10:38:00.824Z,45.000000
2022-09-20T10:39:00.746Z,45.000000
2022-09-20T10:40:04.116Z,45.000000
2022-09-20T10:41:00.767Z,33.750000
2022-09-20T10:42:00.835Z,33.750000
2022-09-20T10:43:00.774Z,56.250000
2022-09-20T10:44:05.127Z,56.250000
2022-09-20T10:45:03.668Z,56.250000
2022-09-20T10:46:30.237Z,33.750000
2022-09-20T10:47:00.906Z,33.750000
2022-09-20T10:48:00.935Z,45.000000
2022-09-20T10:49:00.831Z,45.000000
2022-09-20T10:50:32.193Z,56.250000
2022-09-20T10:51:00.862Z,56.250000
2022-09-20T10:52:00.924Z,56.250000
2022-09-20T10:53:00.851Z,56.250000
2022-09-20T10:54:00.947Z,56.250000
2022-09-20T10:55:03.877Z,45.000000
2022-09-20T10:56:00.982Z,45.000000
2022-09-20T10:57:00.909Z,45.000000
2022-09-20T10:58:00.954Z,45.000000
2022-09-20T10:59:00.896Z,45.000000
2022-09-20T11:00:04.279Z,33.750000
2022-09-20T11:01:00.983Z,33.750000
2022-09-20T11:02:01.245Z,33.750000
2022-09-20T11:03:00.929Z,101.250000
2022-09-20T11:04:01.027Z,101.250000
2022-09-20T11:05:04.129Z,45.000000
2022-09-20T11:06:01.020Z,45.000000
2022-09-20T11:07:00.964Z,45.000000
2022-09-20T11:08:01.048Z,45.000000
2022-09-20T11:09:00.973Z,45.000000
2022-09-20T11:10:04.317Z,45.000000
2022-09-20T11:11:00.983Z,33.750000
2022-09-20T11:12:01.067Z,33.750000
2022-09-20T11:13:00.991Z,33.750000
2022-09-20T11:14:01.080Z,45.000000
2022-09-20T11:15:05.179Z,45.000000
2022-09-20T11:16:01.102Z,33.750000
2022-09-20T11:17:01.129Z,33.750000
2022-09-20T11:18:01.099Z,33.750000
2022-09-20T11:19:01.011Z,33.750000
2022-09-20T11:20:07.530Z,45.000000
2022-09-20T11:21:01.059Z,45.000000
2022-09-20T11:22:01.109Z,45.000000
2022-09-20T11:23:01.075Z,45.000000
2022-09-20T11:24:01.145Z,45.000000
2022-09-20T11:25:04.160Z,45.000000
2022-09-20T11:26:01.167Z,78.750000
2022-09-20T11:27:01.097Z,78.750000
2022-09-20T11:28:01.148Z,78.750000
2022-09-20T11:29:01.100Z,67.500000
2022-09-20T11:30:06.345Z,67.500000
2022-09-20T11:31:01.129Z,56.250000
2022-09-20T11:32:01.329Z,56.250000
2022-09-20T11:33:01.136Z,56.250000
2022-09-20T11:34:01.209Z,67.500000
2022-09-20T11:35:04.186Z,67.500000
2022-09-20T11:36:01.258Z,67.500000